Stasiun Meteorologi Ngurah Rai - Denpasar
PERINGATAN DINI
TIDAK ADA PERINGATAN
TANDA WAKTU
sinkronisasi jam server ...
sinkronisasi jam server ...

CITRA SATELIT HIMAWARI

CITRA SATELIT BALI
CITRA SATELIT INDONESIA

PRAKIRAAN ANGIN 3000FT

GEMPA TERKINI

15:20:14 WIB 29-Mar-17
5,0 SR
0.09 LS - 123.44 BT
115 Km

TIDAK BERPOTENSI TSUNAMI
Posisi :
- 70 km BaratDaya BOLAANGMONGONDOWSEL-SULUT
- 73 km Tenggara BONEBOLANGO-GORONTALO
- 82 km Tenggara GORONTALO-GORONTALO
- 100 km Tenggara KAB-GORONTALO

VIDEO PROFIL

ALUR PELAYANAN KHUSUS PENERBANGAN

ALUR PELAYANAN JASA UMUM


AWC - ADDS METARs
ADDS METAR Data

Data at: 1303 UTC 24 Apr 2017

WADD 241230Z 12010KT 9999 FEW017 29/25 Q1011 NOSIG
WADD 241200Z 10009KT 9999 SCT016 29/25 Q1011 NOSIG
WADD 241130Z 12009KT 9999 BKN017 29/25 Q1010 NOSIG
WADD 241100Z 12008KT 9999 FEW017 29/24 Q1010 NOSIG
WADD 241030Z 13009KT 9999 FEW017 29/24 Q1009 NOSIG

TAF WADD 241100Z 2412/2512 12010KT 9999 SCT017
  BECMG 2414/2416 VRB05KT
  BECMG 2500/2502 12010KT FEW016CB SCT017


BERITA PUBLIKASI
10 April 2017 -
Buletin Edisi April 2017
Edisi April 2017
Pancaroba... Selengkapnya..
10 Maret 2017 -
Buletin Edisi Maret 2017
... Selengkapnya..
10 Februari 2017 -
Buletin Edisi Februari 2017
... Selengkapnya..
10 Januari 2017 -
Buletin Edisi Januari 2017
Edisi perdana 2017... Selengkapnya..